Time;durP1;ratioP1;P1;durP2;ratioP2;P2;SDS_P1;SDS_P2;PMS_P1;PMS_P2;Temp;Humidity;BMP_temperature;BMP_pressure;BME280_temperature;BME280_humidity;BME280_pressure;Samples;Min_cycle;Max_cycle;Signal;HPM_P1;HPM_P2
2020/12/14 00:00:46;;;;;;;93.00;46.23;;;;;;;0.44;86.55;98057.59;1795531;78;21173;-79
2020/12/14 00:03:12;;;;;;;92.53;42.45;;;;;;;0.40;86.66;98052.37;1795628;80;20987;-76
2020/12/14 00:05:38;;;;;;;95.92;45.25;;;;;;;0.39;86.41;98049.41;1795645;78;20920;-77
2020/12/14 00:08:03;;;;;;;101.40;49.35;;;;;;;0.37;86.54;98042.66;1795456;80;20924;-78
2020/12/14 00:10:29;;;;;;;100.70;46.30;;;;;;;0.37;86.71;98047.48;1778025;79;22159;-76
2020/12/14 00:12:55;;;;;;;97.05;45.23;;;;;;;0.42;86.64;98044.16;1795483;80;20924;-78
2020/12/14 00:15:21;;;;;;;96.10;42.43;;;;;;;0.39;86.79;98050.73;1795599;78;21042;-76
2020/12/14 00:17:47;;;;;;;93.35;47.62;;;;;;;0.38;86.22;98046.44;1777651;80;21556;-78
2020/12/14 00:20:13;;;;;;;93.55;44.20;;;;;;;0.35;86.27;98051.39;1795623;78;20965;-77
2020/12/14 00:22:39;;;;;;;84.55;42.43;;;;;;;0.39;86.39;98056.59;1795504;80;21438;-77
2020/12/14 00:25:05;;;;;;;93.62;45.38;;;;;;;0.46;86.57;98060.86;1777712;79;20972;-78
2020/12/14 00:27:30;;;;;;;86.87;43.28;;;;;;;0.49;86.38;98061.75;1795419;80;20908;-78
2020/12/14 00:29:56;;;;;;;88.95;42.78;;;;;;;0.50;86.43;98062.05;1795620;78;21227;-76
2020/12/14 00:32:23;;;;;;;79.40;37.98;;;;;;;0.48;86.33;98057.45;1795410;80;20948;-78
2020/12/14 00:34:49;;;;;;;92.50;43.55;;;;;;;0.48;86.35;98065.97;1795665;78;21452;-77
2020/12/14 00:37:15;;;;;;;91.95;45.30;;;;;;;0.43;86.42;98073.81;1795465;79;20908;-76
2020/12/14 00:39:41;;;;;;;97.67;46.37;;;;;;;0.40;86.46;98067.55;1795765;78;20959;-78
2020/12/14 00:42:06;;;;;;;103.70;48.68;;;;;;;0.39;86.75;98069.92;1777768;80;20955;-76
2020/12/14 00:44:32;;;;;;;114.20;48.73;;;;;;;0.35;86.93;98068.72;1795711;78;21499;-76
2020/12/14 00:46:58;;;;;;;111.80;51.05;;;;;;;0.39;86.68;98080.06;1795828;80;21168;-77
2020/12/14 00:49:24;;;;;;;99.97;46.85;;;;;;;0.45;86.77;98080.55;1795648;78;20872;-77
2020/12/14 00:51:50;;;;;;;101.53;52.20;;;;;;;0.34;87.13;98081.20;1777825;80;21227;-76
2020/12/14 00:54:16;;;;;;;102.60;47.43;;;;;;;0.41;86.82;98083.33;1795599;80;20936;-77
2020/12/14 00:56:42;;;;;;;95.67;43.63;;;;;;;0.45;86.56;98086.41;1795727;80;21042;-75
2020/12/14 00:59:08;;;;;;;95.87;45.33;;;;;;;0.35;86.42;98071.39;1795770;80;21563;-78
2020/12/14 01:01:33;;;;;;;108.00;50.08;;;;;;;0.22;86.64;98075.73;1795581;78;21593;-76
2020/12/14 01:03:59;;;;;;;97.15;47.33;;;;;;;0.19;86.76;98083.34;1795681;80;20943;-77
2020/12/14 01:06:25;;;;;;;87.25;42.75;;;;;;;0.18;86.97;98074.54;1795737;78;21106;-78
2020/12/14 01:08:51;;;;;;;89.37;41.60;;;;;;;0.24;86.93;98076.84;1795774;79;20989;-78
2020/12/14 01:11:17;;;;;;;82.27;43.60;;;;;;;0.29;87.11;98079.70;1795836;78;21447;-76
2020/12/14 01:13:45;;;;;;;97.08;46.48;;;;;;;0.36;87.41;98078.35;1795637;80;21066;-76
2020/12/14 01:16:11;;;;;;;93.75;42.67;;;;;;;0.37;87.33;98076.80;1795772;78;21051;-78
2020/12/14 01:18:37;;;;;;;88.58;44.98;;;;;;;0.43;87.10;98076.47;1795733;79;21155;-78
2020/12/14 01:21:04;;;;;;;88.17;41.73;;;;;;;0.45;87.19;98083.73;1795857;78;21014;-78
2020/12/14 01:23:30;;;;;;;94.50;47.20;;;;;;;0.47;87.10;98081.67;1795639;80;21420;-78
2020/12/14 01:25:56;;;;;;;99.72;46.60;;;;;;;0.49;86.85;98083.08;1795656;78;21034;-78
2020/12/14 01:28:22;;;;;;;79.65;35.65;;;;;;;0.46;86.93;98085.37;1795590;80;20995;-79
2020/12/14 01:30:48;;;;;;;76.12;35.83;;;;;;;0.49;86.81;98083.08;1795740;78;20984;-76
2020/12/14 01:33:13;;;;;;;71.62;35.40;;;;;;;0.50;86.57;98085.23;1795670;80;21975;-76
2020/12/14 01:35:39;;;;;;;72.90;33.83;;;;;;;0.47;86.45;98078.48;1795799;78;21184;-76
2020/12/14 01:38:05;;;;;;;78.15;37.88;;;;;;;0.47;86.56;98075.81;1795544;80;20963;-76
2020/12/14 01:40:31;;;;;;;68.25;32.60;;;;;;;0.51;86.71;98077.53;1795649;78;21081;-76
2020/12/14 01:42:57;;;;;;;78.07;36.88;;;;;;;0.56;86.79;98069.20;1795755;80;21134;-79
2020/12/14 01:45:24;;;;;;;71.67;35.60;;;;;;;0.60;86.85;98070.94;1795762;78;21023;-77
2020/12/14 01:47:50;;;;;;;76.57;37.03;;;;;;;0.62;86.64;98065.39;1795691;80;22206;-76
2020/12/14 01:50:16;;;;;;;77.85;35.92;;;;;;;0.58;86.73;98072.16;1777929;79;21169;-78
2020/12/14 01:52:45;;;;;;;79.72;36.45;;;;;;;0.55;86.90;98071.56;1795566;80;21273;-77
2020/12/14 01:55:13;;;;;;;;;;;;;;;0.49;86.94;98072.41;1797989;78;21043;-78
2020/12/14 01:57:39;;;;;;;80.35;35.60;;;;;;;0.52;86.96;98080.00;1795714;80;20491;-78
2020/12/14 02:00:10;;;;;;;75.65;36.77;;;;;;;0.52;86.66;98079.19;1795601;78;22013;-78
2020/12/14 02:02:35;;;;;;;68.37;33.30;;;;;;;0.50;86.53;98076.71;1795661;80;21173;-78
2020/12/14 02:05:02;;;;;;;67.08;34.67;;;;;;;0.49;86.62;98071.60;1795695;78;20924;-77
2020/12/14 02:07:28;;;;;;;75.08;33.28;;;;;;;0.51;86.54;98080.20;1795664;80;21178;-78
2020/12/14 02:09:54;;;;;;;71.20;33.90;;;;;;;0.53;86.64;98076.83;1795715;78;21619;-78
2020/12/14 02:12:25;;;;;;;67.47;33.25;;;;;;;0.58;86.54;98089.50;1795706;80;21361;-78
2020/12/14 02:14:56;;;;;;;60.83;28.90;;;;;;;0.63;86.74;98087.02;1795572;78;21102;-77
2020/12/14 02:17:22;;;;;;;76.35;38.83;;;;;;;0.70;86.60;98091.80;1778554;80;21079;-78
2020/12/14 02:19:48;;;;;;;70.00;35.10;;;;;;;0.61;86.86;98093.91;1795622;78;21051;-77
2020/12/14 02:22:21;;;;;;;81.00;35.13;;;;;;;0.59;86.52;98085.80;1795748;79;21043;-76
2020/12/14 02:24:59;;;;;;;75.40;36.30;;;;;;;0.54;86.79;98091.27;1795585;78;21252;-77
2020/12/14 02:27:26;;;;;;;65.85;32.15;;;;;;;0.58;86.86;98090.31;1794698;79;21500;-76
2020/12/14 02:29:53;;;;;;;75.87;38.08;;;;;;;0.62;86.61;98094.20;1795672;78;21047;-76
2020/12/14 02:32:20;;;;;;;74.50;37.00;;;;;;;0.60;86.34;98102.09;1795593;79;21190;-78
2020/12/14 02:34:46;;;;;;;69.55;32.93;;;;;;;0.60;86.56;98094.94;1795573;78;21468;-76
2020/12/14 02:37:19;;;;;;;63.70;33.53;;;;;;;0.60;86.43;98097.61;1795654;80;21162;-78
2020/12/14 02:39:45;;;;;;;65.28;32.48;;;;;;;0.67;86.63;98098.88;1794952;78;21060;-78
2020/12/14 02:42:19;;;;;;;65.85;32.65;;;;;;;0.76;86.89;98110.41;1795611;79;20936;-78
2020/12/14 02:44:45;;;;;;;51.80;26.73;;;;;;;0.79;86.82;98102.00;1795707;78;21472;-78
2020/12/14 02:47:12;;;;;;;61.58;33.08;;;;;;;0.82;86.61;98101.56;1777894;80;21398;-77
2020/12/14 02:49:37;;;;;;;66.75;30.85;;;;;;;0.83;86.60;98101.86;1795644;78;21320;-77
2020/12/14 02:52:04;;;;;;;68.62;32.73;;;;;;;0.84;86.69;98102.67;1795555;80;20951;-78
2020/12/14 02:54:30;;;;;;;59.13;30.60;;;;;;;0.90;86.63;98105.00;1795595;78;21544;-76
2020/12/14 02:56:57;;;;;;;60.17;28.50;;;;;;;0.90;86.45;98113.01;1795706;80;20995;-78
2020/12/14 02:59:23;;;;;;;63.08;32.00;;;;;;;0.89;86.18;98108.71;1795654;78;21106;-76
2020/12/14 03:01:49;;;;;;;58.95;29.48;;;;;;;0.84;86.14;98105.34;1795632;80;21428;-78
2020/12/14 03:04:16;;;;;;;56.77;30.23;;;;;;;0.84;86.22;98110.16;1795360;80;20912;-78
2020/12/14 03:06:46;;;;;;;58.50;31.90;;;;;;;0.88;86.22;98109.75;1795504;80;21375;-76
2020/12/14 03:09:16;;;;;;;72.20;35.73;;;;;;;0.85;86.24;98108.30;1795545;80;21063;-78
2020/12/14 03:11:42;;;;;;;68.85;34.70;;;;;;;0.88;86.37;98118.56;1795623;80;21126;-79
2020/12/14 03:14:08;;;;;;;79.25;39.38;;;;;;;0.83;86.30;98115.72;1795533;79;21260;-77
2020/12/14 03:16:43;;;;;;;66.80;36.10;;;;;;;0.84;86.56;98120.02;1795594;78;20873;-76
2020/12/14 03:19:09;;;;;;;75.30;40.00;;;;;;;0.90;86.70;98122.34;1795603;80;21163;-79
2020/12/14 03:21:35;;;;;;;76.92;37.33;;;;;;;0.94;86.56;98124.39;1795644;78;20944;-77
2020/12/14 03:24:01;;;;;;;61.10;31.90;;;;;;;1.00;86.30;98126.69;1795626;80;21015;-79
2020/12/14 03:26:27;;;;;;;64.75;34.55;;;;;;;0.91;85.87;98129.31;1795522;78;21199;-78
2020/12/14 03:28:53;;;;;;;64.27;30.97;;;;;;;0.90;86.18;98132.50;1777598;80;22471;-77
2020/12/14 03:31:18;;;;;;;66.12;33.40;;;;;;;0.93;86.19;98130.73;1795675;78;20877;-77
2020/12/14 03:33:44;;;;;;;63.48;32.25;;;;;;;0.92;86.19;98133.62;1795520;80;20904;-76
2020/12/14 03:36:10;;;;;;;62.80;31.33;;;;;;;0.92;86.31;98135.77;1795659;78;21530;-77
2020/12/14 03:38:36;;;;;;;72.42;36.42;;;;;;;0.96;86.32;98141.51;1795469;80;21197;-77
2020/12/14 03:41:05;;;;;;;64.60;32.50;;;;;;;0.93;86.18;98143.25;1777675;79;20876;-78
2020/12/14 03:43:31;;;;;;;72.15;36.93;;;;;;;0.90;85.88;98142.36;1777881;80;21051;-77
2020/12/14 03:45:57;;;;;;;62.45;33.42;;;;;;;0.82;86.02;98147.43;1795668;78;21118;-77
2020/12/14 03:48:24;;;;;;;65.28;32.85;;;;;;;0.80;85.82;98143.64;1795645;80;20915;-76
2020/12/14 03:50:50;;;;;;;63.92;31.35;;;;;;;0.76;85.89;98145.09;1795634;78;21337;-78
2020/12/14 03:53:16;;;;;;;63.87;32.98;;;;;;;0.75;85.86;98146.64;1777618;80;21010;-76
2020/12/14 03:55:42;;;;;;;74.10;36.38;;;;;;;0.76;86.17;98141.61;1795711;78;21082;-77
2020/12/14 03:58:08;;;;;;;67.72;35.75;;;;;;;0.84;86.40;98150.69;1795569;80;20916;-78
2020/12/14 04:00:34;;;;;;;71.33;35.98;;;;;;;0.89;86.40;98147.40;1795538;78;20972;-78
2020/12/14 04:03:05;;;;;;;70.35;40.12;;;;;;;0.90;86.22;98151.18;1777788;80;21183;-79
2020/12/14 04:05:29;;;;;;;74.58;36.70;;;;;;;0.90;86.32;98147.70;1795359;78;21122;-79
2020/12/14 04:07:55;;;;;;;70.00;34.75;;;;;;;0.99;86.59;98147.74;1795703;80;21562;-79
2020/12/14 04:10:21;;;;;;;66.87;35.48;;;;;;;0.98;86.37;98154.11;1795592;78;20928;-80
2020/12/14 04:12:47;;;;;;;62.35;29.37;;;;;;;0.96;86.39;98145.52;1795605;79;21040;-77
2020/12/14 04:15:13;;;;;;;61.35;31.75;;;;;;;0.90;86.00;98153.84;1795819;78;21365;-79
2020/12/14 04:17:39;;;;;;;53.80;28.17;;;;;;;0.81;85.95;98152.47;1795754;80;21089;-77
2020/12/14 04:20:05;;;;;;;71.53;33.80;;;;;;;0.79;85.94;98163.87;1795745;78;21550;-80
2020/12/14 04:22:31;;;;;;;70.12;37.48;;;;;;;0.73;86.09;98166.05;1795790;80;20979;-79
2020/12/14 04:24:57;;;;;;;62.08;32.88;;;;;;;0.75;86.23;98160.80;1795822;78;21016;-77
2020/12/14 04:27:23;;;;;;;57.43;31.65;;;;;;;0.76;86.08;98169.62;1795796;80;21520;-77
2020/12/14 04:29:48;;;;;;;70.15;34.08;;;;;;;0.80;86.32;98167.66;1795682;78;20907;-77
2020/12/14 04:32:15;;;;;;;68.30;31.48;;;;;;;0.89;86.49;98174.89;1795803;80;20921;-77
2020/12/14 04:34:40;;;;;;;60.28;30.55;;;;;;;0.95;86.56;98177.23;1795588;78;21683;-79
2020/12/14 04:37:06;;;;;;;58.00;27.95;;;;;;;1.02;86.62;98186.81;1795823;79;21394;-79
2020/12/14 04:39:33;;;;;;;59.25;28.55;;;;;;;1.08;86.59;98192.63;1777898;78;22167;-80
2020/12/14 04:41:59;;;;;;;54.90;28.32;;;;;;;1.11;86.45;98196.72;1777951;80;21651;-79
2020/12/14 04:44:25;;;;;;;52.58;27.22;;;;;;;1.13;86.59;98204.83;1795691;78;20936;-80
2020/12/14 04:46:51;;;;;;;53.40;26.57;;;;;;;1.13;86.38;98214.70;1777922;80;21194;-79
2020/12/14 04:49:17;;;;;;;57.23;26.33;;;;;;;1.08;86.26;98219.84;1795704;80;21061;-79
2020/12/14 04:51:45;;;;;;;60.63;27.17;;;;;;;1.02;86.15;98220.17;1795679;80;21648;-79
2020/12/14 04:54:11;;;;;;;60.70;29.30;;;;;;;1.01;86.11;98222.54;1795562;80;21460;-77
2020/12/14 04:56:39;;;;;;;49.40;24.67;;;;;;;1.05;86.18;98219.77;1795633;78;20951;-79
2020/12/14 04:59:06;;;;;;;47.67;24.03;;;;;;;1.08;86.20;98221.17;1795840;80;21055;-77
2020/12/14 05:01:32;;;;;;;50.50;23.83;;;;;;;1.10;86.20;98223.92;1795686;78;21031;-77
2020/12/14 05:03:58;;;;;;;48.95;24.10;;;;;;;1.15;86.19;98233.98;1777933;80;21204;-77
2020/12/14 05:06:23;;;;;;;52.60;23.95;;;;;;;1.18;86.28;98236.72;1777850;79;20888;-79
2020/12/14 05:08:49;;;;;;;63.58;29.02;;;;;;;1.18;86.19;98236.72;1795693;80;21475;-77
2020/12/14 05:11:33;;;;;;;60.48;28.30;;;;;;;1.12;85.85;98239.75;1795693;78;20991;-79
2020/12/14 05:14:16;;;;;;;54.08;25.82;;;;;;;1.13;86.11;98248.06;1780196;80;21146;-77
2020/12/14 05:16:42;;;;;;;48.87;21.97;;;;;;;1.12;85.95;98260.59;1777048;80;22168;-78
2020/12/14 05:19:25;;;;;;;45.95;22.60;;;;;;;1.15;85.99;98263.86;1795623;80;21122;-76
2020/12/14 05:21:56;;;;;;;69.58;28.52;;;;;;;1.19;85.98;98278.40;1778934;80;21099;-76
2020/12/14 05:24:23;;;;;;;139.10;45.80;;;;;;;1.19;85.76;98275.73;1795534;78;21166;-77
2020/12/14 05:26:49;;;;;;;92.33;36.60;;;;;;;1.20;85.84;98284.04;1777906;80;21579;-78
2020/12/14 05:29:28;;;;;;;254.25;80.53;;;;;;;1.22;85.81;98283.33;1777847;80;22040;-77
2020/12/14 05:32:05;;;;;;;;;;;;;;;1.22;85.59;98268.13;1798322;80;21110;-79
2020/12/14 05:34:34;;;;;;;273.95;93.37;;;;;;;1.16;85.58;98273.50;1795667;78;20216;-76
2020/12/14 05:37:02;;;;;;;173.17;59.67;;;;;;;1.15;85.80;98278.02;1795470;79;21111;-79
2020/12/14 05:39:28;;;;;;;99.47;37.80;;;;;;;1.15;85.58;98270.53;1795778;78;21107;-78
2020/12/14 05:41:58;;;;;;;50.38;21.97;;;;;;;1.10;85.20;98267.15;1777732;80;21284;-79
2020/12/14 05:44:27;;;;;;;55.95;22.00;;;;;;;1.05;85.48;98277.66;1794562;78;21063;-77
2020/12/14 05:46:53;;;;;;;59.38;27.73;;;;;;;1.06;85.55;98274.77;1795691;80;21210;-76
2020/12/14 05:49:19;;;;;;;89.60;38.13;;;;;;;1.04;85.29;98274.17;1795653;78;21543;-78
2020/12/14 05:51:45;;;;;;;103.78;40.25;;;;;;;1.01;85.47;98277.25;1795735;80;21108;-76
2020/12/14 05:54:13;;;;;;;118.60;50.63;;;;;;;1.07;85.71;98286.27;1795622;80;21204;-76
2020/12/14 05:56:40;;;;;;;88.62;39.18;;;;;;;1.09;85.75;98283.68;1795641;78;21613;-78
2020/12/14 05:59:06;;;;;;;104.12;46.13;;;;;;;1.07;85.58;98281.75;1795685;80;21205;-78
2020/12/14 06:01:31;;;;;;;123.20;57.50;;;;;;;0.97;85.53;98276.56;1795683;78;20951;-78
2020/12/14 06:03:58;;;;;;;107.87;48.28;;;;;;;0.90;85.66;98286.44;1795654;80;21003;-78
2020/12/14 06:06:26;;;;;;;116.25;48.20;;;;;;;0.86;86.43;98291.91;1777776;79;21332;-76
2020/12/14 06:09:12;;;;;;;64.40;30.65;;;;;;;0.87;86.21;98301.03;1777847;80;21158;-78
2020/12/14 06:12:02;;;;;;;79.87;38.35;;;;;;;0.91;86.23;98306.23;1795620;78;21593;-76
2020/12/14 06:14:28;;;;;;;101.87;51.73;;;;;;;0.92;85.96;98313.73;1771301;81;21150;-79
2020/12/14 06:16:53;;;;;;;94.45;47.35;;;;;;;0.88;85.81;98316.52;1742808;82;21618;-79
2020/12/14 06:19:20;;;;;;;79.90;39.27;;;;;;;0.92;85.92;98322.55;1717681;81;21167;-76
2020/12/14 06:21:58;;;;;;;60.80;29.32;;;;;;;0.94;86.09;98327.19;1742745;82;21185;-76
2020/12/14 06:24:24;;;;;;;84.07;39.47;;;;;;;0.93;86.56;98318.84;1720077;81;21128;-79
2020/12/14 06:26:56;;;;;;;55.28;26.93;;;;;;;0.92;86.28;98329.22;1742799;82;21194;-79
2020/12/14 06:29:36;;;;;;;60.65;30.37;;;;;;;0.93;86.03;98338.05;1742838;81;21590;-77
2020/12/14 06:32:02;;;;;;;82.27;38.75;;;;;;;0.91;86.15;98327.58;1742772;82;21297;-80
2020/12/14 06:34:37;;;;;;;78.33;38.95;;;;;;;0.83;86.31;98330.48;1742672;81;20916;-78
2020/12/14 06:37:03;;;;;;;75.25;39.58;;;;;;;0.83;86.37;98335.30;1742796;82;21198;-76
2020/12/14 06:39:37;;;;;;;83.70;45.48;;;;;;;0.86;86.40;98336.75;1742808;81;21214;-76
2020/12/14 06:42:15;;;;;;;87.27;40.95;;;;;;;0.93;86.44;98336.70;1742786;82;21274;-77
2020/12/14 06:44:50;;;;;;;80.10;38.70;;;;;;;0.97;86.54;98336.61;1717560;82;22844;-77
2020/12/14 06:47:17;;;;;;;81.30;37.78;;;;;;;0.95;86.18;98332.00;1742840;82;21071;-80
2020/12/14 06:49:44;;;;;;;67.70;28.62;;;;;;;0.93;86.41;98338.86;1742809;81;21496;-77
2020/12/14 06:52:10;;;;;;;47.03;23.35;;;;;;;0.95;86.44;98340.83;1717820;82;21138;-77
2020/12/14 06:54:45;;;;;;;45.33;22.07;;;;;;;0.95;86.20;98340.83;1742848;81;20960;-77
2020/12/14 06:57:16;;;;;;;35.17;16.95;;;;;;;0.95;86.52;98339.49;1742752;82;21182;-76
2020/12/14 06:59:52;;;;;;;33.78;16.48;;;;;;;0.96;86.23;98337.64;1742732;81;21063;-80
2020/12/14 07:02:18;;;;;;;34.03;16.07;;;;;;;0.93;86.10;98338.86;1742747;82;21035;-80
2020/12/14 07:04:44;;;;;;;35.90;17.80;;;;;;;0.91;86.06;98340.11;1742768;81;21012;-77
2020/12/14 07:07:16;;;;;;;32.78;18.35;;;;;;;0.92;86.01;98341.75;1742829;82;22469;-76
2020/12/14 07:09:41;;;;;;;48.98;21.87;;;;;;;0.93;86.23;98342.86;1742819;81;21202;-77
2020/12/14 07:12:24;;;;;;;40.15;21.17;;;;;;;0.99;86.31;98345.22;1742800;82;21506;-77
2020/12/14 07:14:52;;;;;;;51.40;24.23;;;;;;;1.01;85.96;98345.30;1742674;81;21075;-80
2020/12/14 07:17:21;;;;;;;53.73;28.25;;;;;;;1.05;86.19;98348.39;1742826;82;21091;-80
2020/12/14 07:19:50;;;;;;;51.85;28.85;;;;;;;1.03;86.34;98341.93;1742886;81;21035;-77
2020/12/14 07:22:23;;;;;;;117.75;50.78;;;;;;;1.08;86.16;98345.28;1742819;82;21347;-77
2020/12/14 07:25:02;;;;;;;72.72;35.80;;;;;;;1.10;86.31;98344.03;1741361;81;21071;-76
2020/12/14 07:27:33;;;;;;;59.00;29.90;;;;;;;1.15;86.28;98341.27;1742688;82;21477;-80
2020/12/14 07:30:09;;;;;;;56.58;28.47;;;;;;;1.12;86.18;98329.17;1742789;81;21137;-76
2020/12/14 07:32:35;;;;;;;52.65;25.80;;;;;;;1.13;86.34;98325.47;1742704;82;21510;-77
2020/12/14 07:35:01;;;;;;;47.93;25.23;;;;;;;1.18;86.25;98338.16;1742723;81;21258;-80
2020/12/14 07:37:27;;;;;;;49.85;25.52;;;;;;;1.19;86.14;98324.59;1742702;82;21471;-79
2020/12/14 07:39:53;;;;;;;69.62;29.72;;;;;;;1.27;86.09;98330.22;1742807;81;21027;-80
2020/12/14 07:42:26;;;;;;;65.37;29.72;;;;;;;1.30;85.82;98329.81;1693733;82;20952;-80
2020/12/14 07:45:09;;;;;;;45.03;23.83;;;;;;;1.28;85.86;98334.52;1742785;81;21508;-80
2020/12/14 07:47:36;;;;;;;52.48;27.30;;;;;;;1.22;85.87;98337.55;1722331;82;21314;-79
2020/12/14 07:50:20;;;;;;;57.35;29.07;;;;;;;1.26;85.92;98344.08;1742782;81;21170;-79
2020/12/14 07:52:46;;;;;;;46.75;24.07;;;;;;;1.33;86.10;98346.73;1742768;82;21606;-78
2020/12/14 07:55:14;;;;;;;66.17;28.35;;;;;;;1.35;85.92;98344.66;1742742;81;21015;-81
2020/12/14 07:57:45;;;;;;;48.08;27.40;;;;;;;1.32;85.84;98340.58;1742790;82;21054;-77
2020/12/14 08:00:17;;;;;;;62.27;35.13;;;;;;;1.32;85.67;98343.24;1741988;81;21830;-77
2020/12/14 08:02:44;;;;;;;42.23;25.82;;;;;;;1.32;86.00;98337.09;1742687;82;21181;-81
2020/12/14 08:05:13;;;;;;;37.55;19.90;;;;;;;1.39;86.13;98339.22;1742759;81;21048;-77
2020/12/14 08:07:50;;;;;;;53.73;29.30;;;;;;;1.47;85.53;98342.16;1742978;82;21047;-81
2020/12/14 08:10:31;;;;;;;40.73;21.27;;;;;;;1.47;85.53;98342.16;1742801;81;21573;-76
2020/12/14 08:12:58;;;;;;;47.83;23.57;;;;;;;1.41;85.55;98346.48;1742700;82;22005;-77
2020/12/14 08:15:24;;;;;;;48.87;26.27;;;;;;;1.46;85.70;98344.02;1742809;81;21134;-77
2020/12/14 08:17:51;;;;;;;43.40;24.90;;;;;;;1.50;85.69;98347.06;1717530;82;21055;-81
2020/12/14 08:20:30;;;;;;;49.30;25.45;;;;;;;1.55;85.74;98359.27;1742773;81;21059;-77
2020/12/14 08:22:57;;;;;;;37.30;22.22;;;;;;;1.61;85.64;98365.89;1743015;82;21186;-79
2020/12/14 08:25:25;;;;;;;55.78;28.55;;;;;;;1.64;85.54;98368.16;1717716;82;21174;-80
2020/12/14 08:27:59;;;;;;;58.25;32.45;;;;;;;1.72;85.62;98366.27;1742601;82;21134;-80
2020/12/14 08:30:27;;;;;;;37.85;19.20;;;;;;;1.75;85.21;98363.98;1742808;81;21138;-81
2020/12/14 08:33:14;;;;;;;36.50;21.82;;;;;;;1.69;85.04;98366.16;1718008;82;21591;-81
2020/12/14 08:35:42;;;;;;;44.50;25.10;;;;;;;1.64;85.04;98371.34;1677161;82;21079;-79
2020/12/14 08:38:11;;;;;;;37.48;21.35;;;;;;;1.64;85.05;98360.14;1717966;82;21397;-80
2020/12/14 08:40:38;;;;;;;36.75;20.43;;;;;;;1.73;85.13;98361.23;1741850;81;21063;-80
2020/12/14 08:43:14;;;;;;;36.45;18.67;;;;;;;1.77;85.20;98362.42;1742809;82;21123;-80
2020/12/14 08:46:14;;;;;;;41.77;22.02;;;;;;;1.78;85.03;98362.72;1742739;81;21479;-77
2020/12/14 08:48:48;;;;;;;35.25;19.32;;;;;;;1.86;85.17;98365.95;1684048;85;21106;-80
2020/12/14 08:51:30;;;;;;;36.68;19.00;;;;;;;1.92;85.00;98354.94;1683801;84;21374;-78
2020/12/14 08:53:58;;;;;;;39.73;22.98;;;;;;;1.91;84.90;98350.11;1683869;84;21161;-79
2020/12/14 08:56:32;;;;;;;51.80;22.93;;;;;;;1.88;84.85;98359.05;1680557;85;21223;-76
2020/12/14 08:59:02;;;;;;;46.63;32.60;;;;;;;1.91;84.84;98353.30;1684023;84;21087;-78
2020/12/14 09:01:30;;;;;;;44.95;25.75;;;;;;;1.87;84.51;98352.89;1684247;85;21063;-81
2020/12/14 09:04:00;;;;;;;49.23;27.90;;;;;;;1.88;84.33;98350.55;1661191;85;22735;-77
2020/12/14 09:06:37;;;;;;;54.15;34.75;;;;;;;1.93;84.37;98349.37;1684138;85;21550;-76
2020/12/14 09:09:11;;;;;;;58.23;35.28;;;;;;;2.02;84.37;98351.78;1684195;85;21241;-76
2020/12/14 09:11:49;;;;;;;81.55;40.35;;;;;;;2.09;84.13;98352.55;1661041;85;21097;-76
2020/12/14 09:14:23;;;;;;;60.00;32.80;;;;;;;2.21;84.48;98344.12;1684076;85;21157;-81
2020/12/14 09:16:51;;;;;;;85.77;43.75;;;;;;;2.24;84.33;98346.37;1684241;85;21585;-74
2020/12/14 09:19:21;;;;;;;83.70;41.02;;;;;;;2.23;84.17;98344.74;1684235;85;21542;-74
2020/12/14 09:21:47;;;;;;;86.15;40.95;;;;;;;2.31;84.49;98340.46;1684278;85;21164;-73
2020/12/14 09:24:25;;;;;;;64.22;32.58;;;;;;;2.40;84.52;98343.16;1684333;85;21011;-73
2020/12/14 09:26:52;;;;;;;55.20;28.50;;;;;;;2.42;84.16;98337.06;1684252;85;21130;-73
2020/12/14 09:29:18;;;;;;;52.38;28.85;;;;;;;2.44;84.22;98337.66;1684214;85;21352;-73
2020/12/14 09:31:56;;;;;;;53.40;29.35;;;;;;;2.47;84.03;98334.52;1684218;85;20920;-73
2020/12/14 09:34:22;;;;;;;54.80;28.30;;;;;;;2.44;83.71;98332.30;1684371;85;21628;-72
2020/12/14 09:36:57;;;;;;;60.40;30.05;;;;;;;2.44;83.89;98336.31;1684255;85;20991;-72
2020/12/14 09:39:52;;;;;;;64.10;29.85;;;;;;;2.50;83.92;98337.30;1684308;85;21189;-79
2020/12/14 09:42:21;;;;;;;93.97;45.00;;;;;;;2.51;83.47;98340.27;1721441;83;21321;-76
2020/12/14 09:44:48;;;;;;;92.97;50.10;;;;;;;2.42;83.57;98339.73;1690764;84;21110;-81
2020/12/14 09:47:17;;;;;;;78.22;40.10;;;;;;;2.48;83.90;98330.84;1693061;84;21184;-81
2020/12/14 09:49:44;;;;;;;72.27;42.17;;;;;;;2.53;83.43;98328.30;1693026;83;21135;-77
2020/12/14 09:52:15;;;;;;;149.42;62.60;;;;;;;2.51;83.09;98318.88;1693155;84;21260;-81
2020/12/14 09:54:41;;;;;;;151.35;68.67;;;;;;;2.48;82.75;98312.64;1692992;83;21746;-80
2020/12/14 09:57:08;;;;;;;135.80;74.72;;;;;;;2.41;82.69;98311.36;1693095;84;21239;-79
2020/12/14 10:00:19;;;;;;;114.30;61.95;;;;;;;2.40;83.09;98317.75;1693074;83;21255;-80
2020/12/14 10:02:45;;;;;;;53.23;27.77;;;;;;;2.41;82.94;98323.39;1669421;84;21148;-75
2020/12/14 10:05:11;;;;;;;84.40;36.73;;;;;;;2.39;82.66;98319.28;1693127;83;21021;-80
2020/12/14 10:07:41;;;;;;;191.53;94.13;;;;;;;2.41;82.01;98320.72;1669757;84;21644;-76
2020/12/14 10:10:08;;;;;;;107.65;46.53;;;;;;;2.30;81.46;98315.25;1669599;84;21272;-76
2020/12/14 10:12:40;;;;;;;73.02;27.37;;;;;;;2.24;82.29;98325.80;1693268;84;21045;-81
2020/12/14 10:15:11;;;;;;;49.38;22.07;;;;;;;2.30;82.29;98324.61;1692809;83;21811;-81
2020/12/14 10:17:39;;;;;;;25.12;14.33;;;;;;;2.28;81.29;98326.69;1670866;84;21621;-76
2020/12/14 10:20:18;;;;;;;70.60;28.77;;;;;;;2.19;80.99;98330.16;1693082;83;21997;-81
2020/12/14 10:22:37;;;;;;;47.88;21.77;;;;;;;2.12;81.21;98328.86;1690075;84;21537;-77
2020/12/14 10:25:06;;;;;;;45.90;20.80;;;;;;;2.06;80.68;98323.07;1693130;83;21101;-76
2020/12/14 10:27:37;;;;;;;101.55;38.85;;;;;;;2.07;80.79;98328.72;1692785;84;21157;-81
2020/12/14 10:30:07;;;;;;;51.73;23.20;;;;;;;2.07;80.63;98324.70;1701172;82;21491;-77
2020/12/14 10:32:36;;;;;;;38.60;17.67;;;;;;;2.01;80.75;98320.74;1732153;82;21153;-77
2020/12/14 10:35:04;;;;;;;45.57;23.37;;;;;;;1.93;80.71;98315.14;1731815;81;21117;-77
2020/12/14 10:37:32;;;;;;;39.55;19.75;;;;;;;1.90;80.58;98314.25;1732197;82;21129;-81
2020/12/14 10:40:04;;;;;;;28.57;15.65;;;;;;;1.83;80.15;98314.81;1731849;81;21204;-81
2020/12/14 10:42:31;;;;;;;31.97;14.75;;;;;;;1.81;80.43;98303.00;1731990;82;21141;-81
2020/12/14 10:44:59;;;;;;;23.57;13.75;;;;;;;1.84;80.44;98309.76;1732014;81;21329;-77
2020/12/14 10:47:25;;;;;;;27.55;14.93;;;;;;;1.85;80.66;98321.56;1731890;82;21196;-81
2020/12/14 10:49:51;;;;;;;36.25;19.00;;;;;;;1.91;80.65;98321.23;1732012;81;20939;-77
2020/12/14 10:52:17;;;;;;;48.00;23.75;;;;;;;1.90;81.03;98328.42;1732023;82;21756;-77
2020/12/14 10:54:43;;;;;;;28.57;19.20;;;;;;;1.94;81.14;98320.27;1732048;81;21032;-82
2020/12/14 10:57:09;;;;;;;38.05;21.27;;;;;;;1.95;80.79;98327.77;1732029;82;21549;-81
2020/12/14 10:59:35;;;;;;;26.70;15.53;;;;;;;1.94;80.59;98324.27;1732144;81;20924;-78
2020/12/14 11:02:01;;;;;;;45.15;19.35;;;;;;;1.91;80.30;98326.57;1732030;82;21109;-77
2020/12/14 11:04:26;;;;;;;57.85;22.67;;;;;;;1.93;80.02;98318.63;1732040;81;20905;-82
2020/12/14 11:06:53;;;;;;;37.10;20.10;;;;;;;1.91;80.24;98319.89;1731958;82;20959;-81
2020/12/14 11:09:21;;;;;;;39.73;20.30;;;;;;;1.90;80.32;98322.27;1732004;81;21217;-77
2020/12/14 11:11:49;;;;;;;48.00;21.50;;;;;;;1.90;80.45;98313.73;1731946;82;21066;-77
2020/12/14 11:14:28;;;;;;;56.75;24.75;;;;;;;1.92;80.46;98317.00;1731940;82;21562;-76
2020/12/14 11:16:55;;;;;;;34.53;17.90;;;;;;;2.00;79.85;98312.42;1729627;82;21110;-76
2020/12/14 11:19:21;;;;;;;39.13;21.75;;;;;;;1.87;79.80;98318.67;1731442;81;21129;-81
2020/12/14 11:22:49;;;;;;;46.00;24.60;;;;;;;1.81;80.08;98318.22;1732183;82;21130;-81
2020/12/14 11:25:17;;;;;;;40.08;20.75;;;;;;;1.81;80.45;98323.56;1732139;81;21053;-80
2020/12/14 11:27:42;;;;;;;36.45;20.15;;;;;;;1.86;80.23;98321.05;1732076;82;21110;-80
2020/12/14 11:30:08;;;;;;;20.72;12.95;;;;;;;1.92;80.13;98312.98;1732068;81;21007;-81
2020/12/14 11:32:34;;;;;;;24.27;17.75;;;;;;;1.91;80.36;98319.38;1732125;82;21021;-77